sensor_id;sensor_type;location;lat;lon;timestamp;P1;durP1;ratioP1;P2;durP2;ratioP2
41309;SDS011;27057;51.438;-0.010;2024-01-30T00:00:16;29.65;;;9.57;;
41309;SDS011;27057;51.438;-0.010;2024-01-30T00:02:44;36.17;;;11.52;;
41309;SDS011;27057;51.438;-0.010;2024-01-30T00:05:12;38.33;;;11.40;;
41309;SDS011;27057;51.438;-0.010;2024-01-30T00:07:40;42.20;;;11.57;;
41309;SDS011;27057;51.438;-0.010;2024-01-30T00:10:07;48.55;;;11.50;;
41309;SDS011;27057;51.438;-0.010;2024-01-30T00:12:35;26.13;;;8.38;;
41309;SDS011;27057;51.438;-0.010;2024-01-30T00:15:02;37.67;;;8.45;;
41309;SDS011;27057;51.438;-0.010;2024-01-30T00:17:31;36.47;;;9.30;;
41309;SDS011;27057;51.438;-0.010;2024-01-30T00:20:00;35.78;;;12.23;;
41309;SDS011;27057;51.438;-0.010;2024-01-30T00:22:27;32.88;;;9.52;;
41309;SDS011;27057;51.438;-0.010;2024-01-30T00:24:57;33.42;;;9.35;;
41309;SDS011;27057;51.438;-0.010;2024-01-30T00:27:25;45.78;;;11.70;;
41309;SDS011;27057;51.438;-0.010;2024-01-30T00:29:53;42.55;;;9.75;;
41309;SDS011;27057;51.438;-0.010;2024-01-30T00:32:21;28.33;;;8.52;;
41309;SDS011;27057;51.438;-0.010;2024-01-30T00:34:50;29.45;;;7.43;;
41309;SDS011;27057;51.438;-0.010;2024-01-30T00:37:18;31.58;;;9.68;;
41309;SDS011;27057;51.438;-0.010;2024-01-30T00:39:46;37.75;;;9.32;;
41309;SDS011;27057;51.438;-0.010;2024-01-30T00:42:14;30.77;;;9.20;;
41309;SDS011;27057;51.438;-0.010;2024-01-30T00:44:41;30.95;;;7.43;;
41309;SDS011;27057;51.438;-0.010;2024-01-30T00:47:09;43.60;;;8.50;;
41309;SDS011;27057;51.438;-0.010;2024-01-30T00:49:37;19.95;;;7.85;;
41309;SDS011;27057;51.438;-0.010;2024-01-30T00:52:05;27.50;;;8.70;;
41309;SDS011;27057;51.438;-0.010;2024-01-30T00:54:32;30.55;;;8.70;;
41309;SDS011;27057;51.438;-0.010;2024-01-30T00:57:00;22.10;;;6.43;;
41309;SDS011;27057;51.438;-0.010;2024-01-30T00:59:27;19.15;;;6.35;;
41309;SDS011;27057;51.438;-0.010;2024-01-30T01:01:55;18.65;;;5.45;;
41309;SDS011;27057;51.438;-0.010;2024-01-30T01:04:22;19.25;;;5.53;;
41309;SDS011;27057;51.438;-0.010;2024-01-30T01:06:50;23.70;;;6.90;;
41309;SDS011;27057;51.438;-0.010;2024-01-30T01:09:17;18.83;;;5.50;;
41309;SDS011;27057;51.438;-0.010;2024-01-30T01:11:45;23.65;;;5.25;;
41309;SDS011;27057;51.438;-0.010;2024-01-30T01:14:14;17.38;;;5.25;;
41309;SDS011;27057;51.438;-0.010;2024-01-30T01:16:41;21.50;;;4.95;;
41309;SDS011;27057;51.438;-0.010;2024-01-30T01:19:09;19.88;;;5.18;;
41309;SDS011;27057;51.438;-0.010;2024-01-30T01:21:37;13.45;;;4.40;;
41309;SDS011;27057;51.438;-0.010;2024-01-30T01:24:04;12.20;;;2.72;;
41309;SDS011;27057;51.438;-0.010;2024-01-30T01:26:32;19.10;;;4.47;;
41309;SDS011;27057;51.438;-0.010;2024-01-30T01:28:59;26.98;;;4.07;;
41309;SDS011;27057;51.438;-0.010;2024-01-30T01:31:26;16.13;;;3.50;;
41309;SDS011;27057;51.438;-0.010;2024-01-30T01:33:57;21.50;;;4.43;;
41309;SDS011;27057;51.438;-0.010;2024-01-30T01:36:24;12.63;;;2.45;;
41309;SDS011;27057;51.438;-0.010;2024-01-30T01:38:51;16.90;;;2.75;;
41309;SDS011;27057;51.438;-0.010;2024-01-30T01:41:19;19.42;;;4.90;;
41309;SDS011;27057;51.438;-0.010;2024-01-30T01:43:46;7.03;;;1.77;;
41309;SDS011;27057;51.438;-0.010;2024-01-30T01:46:13;24.75;;;2.63;;
41309;SDS011;27057;51.438;-0.010;2024-01-30T01:48:42;9.52;;;2.05;;
41309;SDS011;27057;51.438;-0.010;2024-01-30T01:51:10;11.68;;;1.92;;
41309;SDS011;27057;51.438;-0.010;2024-01-30T01:53:37;16.88;;;2.17;;
41309;SDS011;27057;51.438;-0.010;2024-01-30T01:56:05;9.82;;;1.85;;
41309;SDS011;27057;51.438;-0.010;2024-01-30T01:58:33;4.82;;;1.50;;
41309;SDS011;27057;51.438;-0.010;2024-01-30T02:01:00;11.52;;;1.50;;
41309;SDS011;27057;51.438;-0.010;2024-01-30T02:03:29;22.23;;;2.95;;
41309;SDS011;27057;51.438;-0.010;2024-01-30T02:05:57;12.35;;;2.33;;
41309;SDS011;27057;51.438;-0.010;2024-01-30T02:08:25;18.55;;;4.15;;
41309;SDS011;27057;51.438;-0.010;2024-01-30T02:10:53;15.70;;;2.58;;
41309;SDS011;27057;51.438;-0.010;2024-01-30T02:13:21;12.57;;;2.20;;
41309;SDS011;27057;51.438;-0.010;2024-01-30T02:15:53;23.02;;;4.88;;
41309;SDS011;27057;51.438;-0.010;2024-01-30T02:18:22;16.83;;;2.40;;
41309;SDS011;27057;51.438;-0.010;2024-01-30T02:20:50;9.55;;;1.30;;
41309;SDS011;27057;51.438;-0.010;2024-01-30T02:23:20;20.10;;;2.28;;
41309;SDS011;27057;51.438;-0.010;2024-01-30T02:25:51;13.32;;;3.00;;
41309;SDS011;27057;51.438;-0.010;2024-01-30T02:28:19;24.73;;;1.85;;
41309;SDS011;27057;51.438;-0.010;2024-01-30T02:30:47;6.72;;;1.88;;
41309;SDS011;27057;51.438;-0.010;2024-01-30T02:33:14;19.55;;;2.88;;
41309;SDS011;27057;51.438;-0.010;2024-01-30T02:35:42;19.90;;;2.05;;
41309;SDS011;27057;51.438;-0.010;2024-01-30T02:38:09;12.30;;;1.77;;
41309;SDS011;27057;51.438;-0.010;2024-01-30T02:40:37;15.10;;;2.05;;
41309;SDS011;27057;51.438;-0.010;2024-01-30T02:43:04;14.52;;;2.08;;
41309;SDS011;27057;51.438;-0.010;2024-01-30T02:45:32;18.52;;;1.90;;
41309;SDS011;27057;51.438;-0.010;2024-01-30T02:47:59;7.10;;;1.02;;
41309;SDS011;27057;51.438;-0.010;2024-01-30T02:50:27;10.95;;;1.20;;
41309;SDS011;27057;51.438;-0.010;2024-01-30T02:52:54;7.60;;;1.27;;
41309;SDS011;27057;51.438;-0.010;2024-01-30T02:55:22;6.88;;;1.23;;
41309;SDS011;27057;51.438;-0.010;2024-01-30T02:57:50;10.75;;;1.27;;
41309;SDS011;27057;51.438;-0.010;2024-01-30T03:00:19;12.48;;;2.03;;
41309;SDS011;27057;51.438;-0.010;2024-01-30T03:02:47;11.25;;;1.35;;
41309;SDS011;27057;51.438;-0.010;2024-01-30T03:05:14;10.38;;;1.33;;
41309;SDS011;27057;51.438;-0.010;2024-01-30T03:07:41;5.32;;;1.02;;
41309;SDS011;27057;51.438;-0.010;2024-01-30T03:10:09;5.15;;;1.10;;
41309;SDS011;27057;51.438;-0.010;2024-01-30T03:12:36;3.50;;;1.13;;
41309;SDS011;27057;51.438;-0.010;2024-01-30T03:15:04;6.65;;;1.00;;
41309;SDS011;27057;51.438;-0.010;2024-01-30T03:17:32;4.82;;;1.08;;
41309;SDS011;27057;51.438;-0.010;2024-01-30T03:19:59;7.28;;;1.92;;
41309;SDS011;27057;51.438;-0.010;2024-01-30T03:22:27;11.02;;;1.70;;
41309;SDS011;27057;51.438;-0.010;2024-01-30T03:24:54;11.82;;;1.70;;
41309;SDS011;27057;51.438;-0.010;2024-01-30T03:27:23;7.32;;;1.48;;
41309;SDS011;27057;51.438;-0.010;2024-01-30T03:29:50;5.20;;;1.10;;
41309;SDS011;27057;51.438;-0.010;2024-01-30T03:32:18;5.07;;;0.98;;
41309;SDS011;27057;51.438;-0.010;2024-01-30T03:34:46;7.28;;;1.10;;
41309;SDS011;27057;51.438;-0.010;2024-01-30T03:37:13;2.28;;;1.02;;
41309;SDS011;27057;51.438;-0.010;2024-01-30T03:39:42;12.05;;;2.70;;
41309;SDS011;27057;51.438;-0.010;2024-01-30T03:42:09;4.57;;;1.05;;
41309;SDS011;27057;51.438;-0.010;2024-01-30T03:44:37;1.67;;;0.70;;
41309;SDS011;27057;51.438;-0.010;2024-01-30T03:47:04;7.70;;;0.85;;
41309;SDS011;27057;51.438;-0.010;2024-01-30T03:49:31;7.20;;;1.67;;
41309;SDS011;27057;51.438;-0.010;2024-01-30T03:52:00;14.63;;;1.25;;
41309;SDS011;27057;51.438;-0.010;2024-01-30T03:54:28;4.88;;;0.90;;
41309;SDS011;27057;51.438;-0.010;2024-01-30T03:59:48;8.05;;;0.90;;
41309;SDS011;27057;51.438;-0.010;2024-01-30T04:02:15;8.30;;;1.10;;
41309;SDS011;27057;51.438;-0.010;2024-01-30T04:04:44;6.45;;;0.68;;
41309;SDS011;27057;51.438;-0.010;2024-01-30T04:07:12;3.05;;;0.98;;
41309;SDS011;27057;51.438;-0.010;2024-01-30T04:09:39;3.88;;;0.82;;
41309;SDS011;27057;51.438;-0.010;2024-01-30T04:12:07;3.40;;;0.73;;
41309;SDS011;27057;51.438;-0.010;2024-01-30T04:14:34;1.77;;;0.60;;
41309;SDS011;27057;51.438;-0.010;2024-01-30T04:17:02;3.65;;;0.70;;
41309;SDS011;27057;51.438;-0.010;2024-01-30T04:19:30;7.38;;;0.88;;
41309;SDS011;27057;51.438;-0.010;2024-01-30T04:21:57;2.70;;;1.17;;
41309;SDS011;27057;51.438;-0.010;2024-01-30T04:24:25;1.55;;;0.70;;
41309;SDS011;27057;51.438;-0.010;2024-01-30T04:26:53;4.78;;;0.95;;
41309;SDS011;27057;51.438;-0.010;2024-01-30T04:29:21;2.33;;;1.10;;
41309;SDS011;27057;51.438;-0.010;2024-01-30T04:31:49;0.57;;;0.50;;
41309;SDS011;27057;51.438;-0.010;2024-01-30T04:34:16;10.68;;;1.30;;
41309;SDS011;27057;51.438;-0.010;2024-01-30T04:36:44;2.63;;;1.00;;
41309;SDS011;27057;51.438;-0.010;2024-01-30T04:39:13;4.25;;;1.20;;
41309;SDS011;27057;51.438;-0.010;2024-01-30T04:41:40;3.47;;;1.17;;
41309;SDS011;27057;51.438;-0.010;2024-01-30T04:44:07;2.90;;;0.98;;
41309;SDS011;27057;51.438;-0.010;2024-01-30T04:46:35;5.28;;;0.90;;
41309;SDS011;27057;51.438;-0.010;2024-01-30T04:49:02;5.63;;;0.95;;
41309;SDS011;27057;51.438;-0.010;2024-01-30T04:51:30;2.33;;;1.00;;
41309;SDS011;27057;51.438;-0.010;2024-01-30T04:53:57;3.95;;;1.10;;
41309;SDS011;27057;51.438;-0.010;2024-01-30T04:56:25;13.43;;;2.10;;
41309;SDS011;27057;51.438;-0.010;2024-01-30T04:58:52;6.82;;;2.42;;
41309;SDS011;27057;51.438;-0.010;2024-01-30T05:01:20;6.15;;;1.23;;
41309;SDS011;27057;51.438;-0.010;2024-01-30T05:03:47;3.00;;;1.05;;
41309;SDS011;27057;51.438;-0.010;2024-01-30T05:06:23;12.13;;;1.25;;
41309;SDS011;27057;51.438;-0.010;2024-01-30T05:08:54;5.65;;;1.73;;
41309;SDS011;27057;51.438;-0.010;2024-01-30T05:11:22;1.25;;;0.88;;
41309;SDS011;27057;51.438;-0.010;2024-01-30T05:13:49;4.97;;;1.38;;
41309;SDS011;27057;51.438;-0.010;2024-01-30T05:16:16;2.65;;;1.17;;
41309;SDS011;27057;51.438;-0.010;2024-01-30T05:18:44;1.90;;;1.10;;
41309;SDS011;27057;51.438;-0.010;2024-01-30T05:21:12;7.15;;;1.45;;
41309;SDS011;27057;51.438;-0.010;2024-01-30T05:23:39;7.90;;;1.55;;
41309;SDS011;27057;51.438;-0.010;2024-01-30T05:26:08;9.77;;;1.88;;
41309;SDS011;27057;51.438;-0.010;2024-01-30T05:28:35;5.00;;;1.60;;
41309;SDS011;27057;51.438;-0.010;2024-01-30T05:31:03;5.70;;;1.38;;
41309;SDS011;27057;51.438;-0.010;2024-01-30T05:33:33;4.82;;;1.48;;
41309;SDS011;27057;51.438;-0.010;2024-01-30T05:36:01;5.15;;;2.25;;
41309;SDS011;27057;51.438;-0.010;2024-01-30T05:38:29;6.07;;;1.48;;
41309;SDS011;27057;51.438;-0.010;2024-01-30T05:40:57;3.42;;;1.42;;
41309;SDS011;27057;51.438;-0.010;2024-01-30T05:43:25;8.27;;;2.00;;
41309;SDS011;27057;51.438;-0.010;2024-01-30T05:45:53;5.43;;;1.48;;
41309;SDS011;27057;51.438;-0.010;2024-01-30T05:48:20;11.13;;;1.42;;
41309;SDS011;27057;51.438;-0.010;2024-01-30T05:50:48;6.70;;;1.40;;
41309;SDS011;27057;51.438;-0.010;2024-01-30T05:53:15;2.45;;;0.98;;
41309;SDS011;27057;51.438;-0.010;2024-01-30T05:55:42;2.97;;;1.23;;
41309;SDS011;27057;51.438;-0.010;2024-01-30T05:58:10;1.40;;;1.20;;
41309;SDS011;27057;51.438;-0.010;2024-01-30T06:00:38;4.07;;;1.42;;
41309;SDS011;27057;51.438;-0.010;2024-01-30T06:03:05;4.30;;;1.00;;
41309;SDS011;27057;51.438;-0.010;2024-01-30T06:05:32;1.15;;;0.80;;
41309;SDS011;27057;51.438;-0.010;2024-01-30T06:08:00;5.97;;;1.27;;
41309;SDS011;27057;51.438;-0.010;2024-01-30T06:10:28;1.52;;;0.88;;
41309;SDS011;27057;51.438;-0.010;2024-01-30T06:12:56;3.60;;;1.05;;
41309;SDS011;27057;51.438;-0.010;2024-01-30T06:15:23;2.55;;;1.02;;
41309;SDS011;27057;51.438;-0.010;2024-01-30T06:17:51;1.30;;;0.77;;
41309;SDS011;27057;51.438;-0.010;2024-01-30T06:20:18;4.28;;;1.13;;
41309;SDS011;27057;51.438;-0.010;2024-01-30T06:22:45;1.17;;;0.75;;
41309;SDS011;27057;51.438;-0.010;2024-01-30T06:25:13;4.55;;;1.98;;
41309;SDS011;27057;51.438;-0.010;2024-01-30T06:27:40;1.40;;;1.10;;
41309;SDS011;27057;51.438;-0.010;2024-01-30T06:30:08;4.43;;;1.02;;
41309;SDS011;27057;51.438;-0.010;2024-01-30T06:32:36;4.80;;;1.55;;
41309;SDS011;27057;51.438;-0.010;2024-01-30T06:35:03;5.80;;;1.05;;
41309;SDS011;27057;51.438;-0.010;2024-01-30T06:37:33;6.00;;;2.00;;
41309;SDS011;27057;51.438;-0.010;2024-01-30T06:40:00;5.47;;;1.55;;
41309;SDS011;27057;51.438;-0.010;2024-01-30T06:42:28;7.65;;;2.00;;
41309;SDS011;27057;51.438;-0.010;2024-01-30T06:44:55;4.22;;;1.67;;
41309;SDS011;27057;51.438;-0.010;2024-01-30T06:47:23;9.65;;;2.90;;
41309;SDS011;27057;51.438;-0.010;2024-01-30T06:49:50;7.22;;;2.20;;
41309;SDS011;27057;51.438;-0.010;2024-01-30T06:52:17;6.75;;;3.30;;
41309;SDS011;27057;51.438;-0.010;2024-01-30T06:54:45;9.70;;;3.33;;
41309;SDS011;27057;51.438;-0.010;2024-01-30T06:57:13;9.05;;;3.53;;
41309;SDS011;27057;51.438;-0.010;2024-01-30T06:59:44;8.48;;;2.38;;
41309;SDS011;27057;51.438;-0.010;2024-01-30T07:02:11;3.72;;;2.67;;
41309;SDS011;27057;51.438;-0.010;2024-01-30T07:04:39;5.10;;;3.03;;
41309;SDS011;27057;51.438;-0.010;2024-01-30T07:07:13;8.35;;;3.50;;
41309;SDS011;27057;51.438;-0.010;2024-01-30T07:09:42;11.07;;;3.55;;
41309;SDS011;27057;51.438;-0.010;2024-01-30T07:12:10;6.22;;;2.97;;
41309;SDS011;27057;51.438;-0.010;2024-01-30T07:14:37;4.97;;;3.20;;
41309;SDS011;27057;51.438;-0.010;2024-01-30T07:17:04;5.80;;;2.50;;
41309;SDS011;27057;51.438;-0.010;2024-01-30T07:19:34;4.63;;;2.95;;
41309;SDS011;27057;51.438;-0.010;2024-01-30T07:22:01;4.85;;;2.70;;
41309;SDS011;27057;51.438;-0.010;2024-01-30T07:24:29;11.63;;;3.08;;
41309;SDS011;27057;51.438;-0.010;2024-01-30T07:26:56;6.00;;;3.40;;
41309;SDS011;27057;51.438;-0.010;2024-01-30T07:29:24;5.32;;;2.65;;
41309;SDS011;27057;51.438;-0.010;2024-01-30T07:31:52;8.68;;;3.72;;
41309;SDS011;27057;51.438;-0.010;2024-01-30T07:34:19;11.02;;;2.75;;
41309;SDS011;27057;51.438;-0.010;2024-01-30T07:36:46;10.10;;;3.63;;
41309;SDS011;27057;51.438;-0.010;2024-01-30T07:39:14;3.15;;;2.20;;
41309;SDS011;27057;51.438;-0.010;2024-01-30T07:41:41;6.82;;;3.33;;
41309;SDS011;27057;51.438;-0.010;2024-01-30T07:44:08;13.07;;;3.28;;
41309;SDS011;27057;51.438;-0.010;2024-01-30T07:46:36;9.02;;;2.55;;
41309;SDS011;27057;51.438;-0.010;2024-01-30T07:49:03;6.20;;;3.17;;
41309;SDS011;27057;51.438;-0.010;2024-01-30T07:51:31;6.55;;;2.80;;
41309;SDS011;27057;51.438;-0.010;2024-01-30T07:53:59;5.47;;;1.95;;
41309;SDS011;27057;51.438;-0.010;2024-01-30T07:56:27;6.15;;;3.92;;
41309;SDS011;27057;51.438;-0.010;2024-01-30T07:58:55;7.15;;;3.20;;
41309;SDS011;27057;51.438;-0.010;2024-01-30T08:01:22;5.90;;;2.95;;
41309;SDS011;27057;51.438;-0.010;2024-01-30T08:03:50;4.78;;;2.33;;
41309;SDS011;27057;51.438;-0.010;2024-01-30T08:06:17;6.25;;;3.05;;
41309;SDS011;27057;51.438;-0.010;2024-01-30T08:08:45;7.88;;;2.67;;
41309;SDS011;27057;51.438;-0.010;2024-01-30T08:11:12;2.33;;;1.80;;
41309;SDS011;27057;51.438;-0.010;2024-01-30T08:13:40;4.40;;;1.60;;
41309;SDS011;27057;51.438;-0.010;2024-01-30T08:16:10;4.85;;;2.55;;
41309;SDS011;27057;51.438;-0.010;2024-01-30T08:18:46;3.80;;;2.83;;
41309;SDS011;27057;51.438;-0.010;2024-01-30T08:21:14;5.18;;;3.10;;
41309;SDS011;27057;51.438;-0.010;2024-01-30T08:23:41;7.45;;;2.35;;
41309;SDS011;27057;51.438;-0.010;2024-01-30T08:26:10;4.78;;;2.15;;
41309;SDS011;27057;51.438;-0.010;2024-01-30T08:28:37;3.85;;;1.40;;
41309;SDS011;27057;51.438;-0.010;2024-01-30T08:31:05;1.55;;;1.30;;
41309;SDS011;27057;51.438;-0.010;2024-01-30T08:33:32;3.33;;;1.15;;
41309;SDS011;27057;51.438;-0.010;2024-01-30T08:36:00;2.55;;;1.02;;
41309;SDS011;27057;51.438;-0.010;2024-01-30T08:38:27;2.08;;;0.80;;
41309;SDS011;27057;51.438;-0.010;2024-01-30T08:40:55;2.00;;;1.00;;
41309;SDS011;27057;51.438;-0.010;2024-01-30T08:43:23;0.52;;;0.52;;
41309;SDS011;27057;51.438;-0.010;2024-01-30T08:45:50;1.38;;;0.90;;
41309;SDS011;27057;51.438;-0.010;2024-01-30T08:48:18;3.10;;;0.80;;
41309;SDS011;27057;51.438;-0.010;2024-01-30T08:50:45;2.67;;;1.00;;
41309;SDS011;27057;51.438;-0.010;2024-01-30T08:53:13;1.85;;;0.95;;
41309;SDS011;27057;51.438;-0.010;2024-01-30T08:55:40;7.32;;;1.48;;
41309;SDS011;27057;51.438;-0.010;2024-01-30T08:58:07;2.58;;;1.15;;
41309;SDS011;27057;51.438;-0.010;2024-01-30T09:00:35;4.82;;;0.77;;
41309;SDS011;27057;51.438;-0.010;2024-01-30T09:03:03;1.50;;;0.80;;
41309;SDS011;27057;51.438;-0.010;2024-01-30T09:05:30;1.45;;;0.80;;
41309;SDS011;27057;51.438;-0.010;2024-01-30T09:07:57;3.33;;;0.80;;
41309;SDS011;27057;51.438;-0.010;2024-01-30T09:10:25;2.95;;;1.00;;
41309;SDS011;27057;51.438;-0.010;2024-01-30T09:12:53;1.05;;;0.70;;
41309;SDS011;27057;51.438;-0.010;2024-01-30T09:15:21;4.93;;;1.10;;
41309;SDS011;27057;51.438;-0.010;2024-01-30T09:17:52;1.30;;;0.73;;
41309;SDS011;27057;51.438;-0.010;2024-01-30T09:20:19;4.20;;;1.13;;
41309;SDS011;27057;51.438;-0.010;2024-01-30T09:22:49;2.22;;;0.88;;
41309;SDS011;27057;51.438;-0.010;2024-01-30T09:25:16;1.55;;;0.80;;
41309;SDS011;27057;51.438;-0.010;2024-01-30T09:27:45;6.88;;;1.00;;
41309;SDS011;27057;51.438;-0.010;2024-01-30T09:30:13;1.45;;;0.60;;
41309;SDS011;27057;51.438;-0.010;2024-01-30T09:32:41;5.82;;;0.80;;
41309;SDS011;27057;51.438;-0.010;2024-01-30T09:35:10;5.18;;;1.25;;
41309;SDS011;27057;51.438;-0.010;2024-01-30T09:37:37;1.35;;;0.80;;
41309;SDS011;27057;51.438;-0.010;2024-01-30T09:40:05;7.47;;;0.77;;
41309;SDS011;27057;51.438;-0.010;2024-01-30T09:42:34;1.98;;;0.98;;
41309;SDS011;27057;51.438;-0.010;2024-01-30T09:45:05;1.30;;;0.82;;
41309;SDS011;27057;51.438;-0.010;2024-01-30T09:47:34;9.07;;;1.20;;
41309;SDS011;27057;51.438;-0.010;2024-01-30T09:50:10;1.70;;;0.70;;
41309;SDS011;27057;51.438;-0.010;2024-01-30T09:52:39;2.05;;;1.30;;
41309;SDS011;27057;51.438;-0.010;2024-01-30T09:55:07;4.93;;;0.88;;
41309;SDS011;27057;51.438;-0.010;2024-01-30T09:57:35;2.00;;;0.70;;
41309;SDS011;27057;51.438;-0.010;2024-01-30T10:00:03;0.82;;;0.70;;
41309;SDS011;27057;51.438;-0.010;2024-01-30T10:02:42;3.22;;;0.88;;
41309;SDS011;27057;51.438;-0.010;2024-01-30T10:05:09;2.28;;;0.73;;
41309;SDS011;27057;51.438;-0.010;2024-01-30T10:07:49;3.70;;;0.60;;
41309;SDS011;27057;51.438;-0.010;2024-01-30T10:10:21;2.78;;;0.95;;
41309;SDS011;27057;51.438;-0.010;2024-01-30T10:12:49;3.58;;;0.93;;
41309;SDS011;27057;51.438;-0.010;2024-01-30T10:15:17;1.02;;;0.77;;
41309;SDS011;27057;51.438;-0.010;2024-01-30T10:17:45;2.65;;;1.00;;
41309;SDS011;27057;51.438;-0.010;2024-01-30T10:20:13;9.65;;;0.90;;
41309;SDS011;27057;51.438;-0.010;2024-01-30T10:22:42;3.97;;;1.95;;
41309;SDS011;27057;51.438;-0.010;2024-01-30T10:25:13;2.35;;;0.85;;
41309;SDS011;27057;51.438;-0.010;2024-01-30T10:27:42;4.93;;;0.80;;
41309;SDS011;27057;51.438;-0.010;2024-01-30T10:30:09;2.78;;;0.82;;
41309;SDS011;27057;51.438;-0.010;2024-01-30T10:32:37;18.73;;;4.18;;
41309;SDS011;27057;51.438;-0.010;2024-01-30T10:35:04;2.50;;;0.73;;
41309;SDS011;27057;51.438;-0.010;2024-01-30T10:37:32;4.35;;;1.15;;
41309;SDS011;27057;51.438;-0.010;2024-01-30T10:40:04;2.25;;;0.77;;
41309;SDS011;27057;51.438;-0.010;2024-01-30T10:42:33;2.60;;;0.80;;
41309;SDS011;27057;51.438;-0.010;2024-01-30T10:45:08;9.07;;;1.85;;
41309;SDS011;27057;51.438;-0.010;2024-01-30T10:47:40;5.38;;;1.15;;
41309;SDS011;27057;51.438;-0.010;2024-01-30T10:50:14;0.98;;;0.70;;
41309;SDS011;27057;51.438;-0.010;2024-01-30T10:52:43;1.45;;;0.82;;
41309;SDS011;27057;51.438;-0.010;2024-01-30T10:55:11;5.18;;;1.05;;
41309;SDS011;27057;51.438;-0.010;2024-01-30T10:57:40;5.07;;;0.88;;
41309;SDS011;27057;51.438;-0.010;2024-01-30T11:00:09;6.32;;;1.20;;
41309;SDS011;27057;51.438;-0.010;2024-01-30T11:02:39;2.80;;;0.85;;
41309;SDS011;27057;51.438;-0.010;2024-01-30T11:05:09;0.77;;;0.70;;
41309;SDS011;27057;51.438;-0.010;2024-01-30T11:07:38;4.03;;;0.80;;
41309;SDS011;27057;51.438;-0.010;2024-01-30T11:10:09;1.67;;;0.80;;
41309;SDS011;27057;51.438;-0.010;2024-01-30T11:12:40;3.00;;;1.17;;
41309;SDS011;27057;51.438;-0.010;2024-01-30T11:15:10;1.77;;;0.90;;
41309;SDS011;27057;51.438;-0.010;2024-01-30T11:20:09;1.75;;;0.90;;
41309;SDS011;27057;51.438;-0.010;2024-01-30T11:22:40;4.55;;;0.88;;
41309;SDS011;27057;51.438;-0.010;2024-01-30T11:25:13;0.82;;;0.50;;
41309;SDS011;27057;51.438;-0.010;2024-01-30T11:27:41;0.60;;;0.60;;
41309;SDS011;27057;51.438;-0.010;2024-01-30T11:30:22;0.75;;;0.73;;
41309;SDS011;27057;51.438;-0.010;2024-01-30T11:35:31;1.95;;;0.55;;
41309;SDS011;27057;51.438;-0.010;2024-01-30T11:38:00;0.93;;;0.60;;
41309;SDS011;27057;51.438;-0.010;2024-01-30T11:40:29;1.30;;;0.50;;
41309;SDS011;27057;51.438;-0.010;2024-01-30T11:42:58;5.57;;;0.60;;
41309;SDS011;27057;51.438;-0.010;2024-01-30T11:45:27;1.20;;;0.73;;
41309;SDS011;27057;51.438;-0.010;2024-01-30T11:47:55;6.13;;;0.70;;
41309;SDS011;27057;51.438;-0.010;2024-01-30T11:50:24;0.60;;;0.55;;
41309;SDS011;27057;51.438;-0.010;2024-01-30T11:52:55;10.23;;;0.70;;
41309;SDS011;27057;51.438;-0.010;2024-01-30T11:55:23;1.20;;;0.63;;
41309;SDS011;27057;51.438;-0.010;2024-01-30T11:57:51;1.88;;;0.55;;
41309;SDS011;27057;51.438;-0.010;2024-01-30T12:00:22;5.97;;;0.70;;
41309;SDS011;27057;51.438;-0.010;2024-01-30T12:02:50;3.47;;;0.63;;
41309;SDS011;27057;51.438;-0.010;2024-01-30T12:05:22;0.40;;;0.40;;
41309;SDS011;27057;51.438;-0.010;2024-01-30T12:07:51;0.57;;;0.50;;
41309;SDS011;27057;51.438;-0.010;2024-01-30T12:10:19;0.63;;;0.40;;
41309;SDS011;27057;51.438;-0.010;2024-01-30T12:12:47;1.02;;;0.60;;
41309;SDS011;27057;51.438;-0.010;2024-01-30T12:15:17;1.52;;;0.63;;
41309;SDS011;27057;51.438;-0.010;2024-01-30T12:17:45;1.15;;;0.60;;
41309;SDS011;27057;51.438;-0.010;2024-01-30T12:20:14;0.73;;;0.63;;
41309;SDS011;27057;51.438;-0.010;2024-01-30T12:22:45;1.80;;;0.60;;
41309;SDS011;27057;51.438;-0.010;2024-01-30T12:25:17;0.82;;;0.60;;
41309;SDS011;27057;51.438;-0.010;2024-01-30T12:27:48;2.45;;;0.90;;
41309;SDS011;27057;51.438;-0.010;2024-01-30T12:30:19;4.90;;;0.82;;
41309;SDS011;27057;51.438;-0.010;2024-01-30T12:32:49;2.20;;;0.70;;
41309;SDS011;27057;51.438;-0.010;2024-01-30T12:35:19;7.78;;;0.68;;
41309;SDS011;27057;51.438;-0.010;2024-01-30T12:37:49;4.20;;;0.55;;
41309;SDS011;27057;51.438;-0.010;2024-01-30T12:40:17;0.57;;;0.40;;
41309;SDS011;27057;51.438;-0.010;2024-01-30T12:42:46;3.83;;;0.85;;
41309;SDS011;27057;51.438;-0.010;2024-01-30T12:45:17;1.90;;;0.57;;
41309;SDS011;27057;51.438;-0.010;2024-01-30T12:47:50;2.47;;;0.80;;
41309;SDS011;27057;51.438;-0.010;2024-01-30T12:50:17;2.63;;;0.68;;
41309;SDS011;27057;51.438;-0.010;2024-01-30T12:52:45;1.45;;;0.60;;
41309;SDS011;27057;51.438;-0.010;2024-01-30T12:55:16;0.70;;;0.60;;
41309;SDS011;27057;51.438;-0.010;2024-01-30T12:57:44;1.58;;;0.70;;
41309;SDS011;27057;51.438;-0.010;2024-01-30T13:00:13;6.45;;;1.02;;
41309;SDS011;27057;51.438;-0.010;2024-01-30T13:02:40;2.72;;;0.77;;
41309;SDS011;27057;51.438;-0.010;2024-01-30T13:05:09;2.90;;;0.65;;
41309;SDS011;27057;51.438;-0.010;2024-01-30T13:07:37;0.70;;;0.55;;
41309;SDS011;27057;51.438;-0.010;2024-01-30T13:10:05;4.40;;;0.80;;
41309;SDS011;27057;51.438;-0.010;2024-01-30T13:12:33;1.00;;;0.70;;
41309;SDS011;27057;51.438;-0.010;2024-01-30T13:15:00;2.63;;;0.85;;
41309;SDS011;27057;51.438;-0.010;2024-01-30T13:17:28;1.35;;;0.93;;
41309;SDS011;27057;51.438;-0.010;2024-01-30T13:19:56;2.67;;;1.00;;
41309;SDS011;27057;51.438;-0.010;2024-01-30T13:22:36;4.80;;;1.17;;
41309;SDS011;27057;51.438;-0.010;2024-01-30T13:25:05;5.95;;;1.17;;
41309;SDS011;27057;51.438;-0.010;2024-01-30T13:27:34;5.80;;;1.80;;
41309;SDS011;27057;51.438;-0.010;2024-01-30T13:30:05;7.45;;;1.70;;
41309;SDS011;27057;51.438;-0.010;2024-01-30T13:32:42;5.32;;;1.20;;
41309;SDS011;27057;51.438;-0.010;2024-01-30T13:35:11;12.50;;;1.40;;
41309;SDS011;27057;51.438;-0.010;2024-01-30T13:37:39;8.07;;;1.65;;
41309;SDS011;27057;51.438;-0.010;2024-01-30T13:40:06;4.60;;;1.85;;
41309;SDS011;27057;51.438;-0.010;2024-01-30T13:42:38;1.23;;;0.90;;
41309;SDS011;27057;51.438;-0.010;2024-01-30T13:45:05;5.03;;;1.58;;
41309;SDS011;27057;51.438;-0.010;2024-01-30T13:47:33;3.58;;;1.45;;
41309;SDS011;27057;51.438;-0.010;2024-01-30T13:50:00;1.75;;;0.82;;
41309;SDS011;27057;51.438;-0.010;2024-01-30T13:52:30;4.57;;;0.80;;
41309;SDS011;27057;51.438;-0.010;2024-01-30T13:55:04;3.35;;;1.33;;
41309;SDS011;27057;51.438;-0.010;2024-01-30T13:57:31;5.07;;;1.70;;
41309;SDS011;27057;51.438;-0.010;2024-01-30T14:00:05;2.22;;;1.17;;
41309;SDS011;27057;51.438;-0.010;2024-01-30T14:02:38;6.35;;;2.38;;
41309;SDS011;27057;51.438;-0.010;2024-01-30T14:05:06;10.63;;;1.92;;
41309;SDS011;27057;51.438;-0.010;2024-01-30T14:07:35;3.47;;;1.25;;
41309;SDS011;27057;51.438;-0.010;2024-01-30T14:10:03;9.88;;;1.95;;
41309;SDS011;27057;51.438;-0.010;2024-01-30T14:12:36;5.60;;;1.75;;
41309;SDS011;27057;51.438;-0.010;2024-01-30T14:15:04;4.40;;;1.88;;
41309;SDS011;27057;51.438;-0.010;2024-01-30T14:17:45;7.70;;;1.60;;
41309;SDS011;27057;51.438;-0.010;2024-01-30T14:20:15;9.30;;;3.75;;
41309;SDS011;27057;51.438;-0.010;2024-01-30T14:22:45;12.55;;;5.05;;
41309;SDS011;27057;51.438;-0.010;2024-01-30T14:25:13;21.13;;;6.85;;
41309;SDS011;27057;51.438;-0.010;2024-01-30T14:27:40;12.70;;;4.10;;
41309;SDS011;27057;51.438;-0.010;2024-01-30T14:30:10;11.20;;;3.47;;
41309;SDS011;27057;51.438;-0.010;2024-01-30T14:32:38;4.13;;;1.48;;
41309;SDS011;27057;51.438;-0.010;2024-01-30T14:35:07;20.20;;;8.95;;
41309;SDS011;27057;51.438;-0.010;2024-01-30T14:37:37;7.32;;;3.17;;
41309;SDS011;27057;51.438;-0.010;2024-01-30T14:40:04;3.28;;;1.42;;
41309;SDS011;27057;51.438;-0.010;2024-01-30T14:42:34;2.08;;;1.17;;
41309;SDS011;27057;51.438;-0.010;2024-01-30T14:45:03;5.47;;;1.40;;